Nearby METAR Reports

 

KMUI - Muir Aaf/Indiant, Pennsylvania, USA
Distance from station: WNW 5mi, 8km
Updated: 02/24/2024 1:28am
Light drizzle, Partly cloudy
Light drizzle, Partly cloudy
 Wind from NNE
Wind: NNE 5 mph , 7 km/h
Temperature: 43°F , 6°C
Wind Chill: 40°F , 4°C
Dew Point: 37°F , 3°C
Humidity: 81%
Barometer: 999.3 hPa
Summary: Light Drizzle
Clouds: Partly cloudy
Visibility: 10 miles , 16 km
Cloud details: Few Clouds 5500 ft
Partly cloudy 7500 ft
Partly cloudy 9000 ft
2024/02/24 06:28 KMUI 240628Z AUTO 02004KT 10SM -DZ FEW055 SCT075 SCT090 06/03 A2951 RMK AO2 DZB28 SLP998 $
KMDT - Middletown, Pennsylvania, USA
Distance from station: SW 21mi, 34km
Updated: 02/24/2024 12:56am
Mist, Overcast
Mist, Overcast
 Wind from NNW
Wind: NNW 5 mph , 7 km/h
Temperature: 37°F , 3°C
Wind Chill: 33°F , 1°C
Dew Point: 36°F , 2°C
Humidity: 93%
Barometer: 999.7 hPa
Summary: Mist
Clouds: Overcast
Visibility: 5 miles , 8 km
Cloud details: Overcast 6000 ft
2024/02/24 05:56 KMDT 240556Z 33004KT 5SM BR OVC060 03/02 A2952 RMK AO2 RAB12E54 SLP000 P0001 60001 I6000 T00280022 10050 20000 50000
 
KZER - Pottsville, Pennsylvania, USA
Distance from station: NNE 21mi, 34km
Updated: 02/24/2024 1:35am
Overcast
Overcast
 Wind from NNW
Wind: NNW 6 mph , 9 km/h
Temperature: 36°F , 2°C
Wind Chill: 31°F , -1°C
Dew Point: 34°F , 1°C
Humidity: 93%
Barometer: 999.7 hPa
Clouds: Overcast
Visibility: 7 miles , 11 km
Cloud details: Partly cloudy 2300 ft
Mostly cloudy 3500 ft
Overcast 4100 ft
2024/02/24 06:35 KZER 240635Z AUTO 33005KT 7SM SCT023 BKN035 OVC041 02/01 A2952 RMK AO2
KLNS - Lancaster, Pennsylvania, USA
Distance from station: SSE 22mi, 35km
Updated: 02/24/2024 12:53am
Mist, Mostly cloudy
Mist, Mostly cloudy
 Wind from W
Wind: W 3 mph , 6 km/h
Temperature: 36°F , 2°C
Dew Point: 36°F , 2°C
Humidity: 100%
Barometer: 999.7 hPa
Summary: Mist
Clouds: Mostly cloudy
Visibility: 4 miles , 6 km
Cloud details: Mostly cloudy 7000 ft
2024/02/24 05:53 KLNS 240553Z AUTO 26003KT 4SM BR BKN070 02/02 A2952 RMK AO2 SLP998 T00220017 10061 20011 57001
 
KCXY - Harrisburg, Pennsylvania, USA
Distance from station: WSW 24mi, 38km
Updated: 02/24/2024 12:56am
Mist, Overcast
Mist, Overcast
 Wind from W
Wind: W 6 mph , 9 km/h
Temperature: 39°F , 4°C
Wind Chill: 35°F , 2°C
Dew Point: 36°F , 2°C
Humidity: 87%
Barometer: 1000 hPa
Summary: Mist
Clouds: Overcast
Visibility: 6 miles , 10 km
Cloud details: Mostly cloudy 4900 ft
Overcast 6000 ft
2024/02/24 05:56 KCXY 240556Z AUTO 26005KT 6SM BR BKN049 OVC060 04/02 A2953 RMK AO2 RAB05E44 SLP003 P0001 60001 T00440022 10061 20017 51002
KRDG - Reading, Pennsylvania, USA
Distance from station: E 27mi, 43km
Updated: 02/24/2024 12:54am
Mist, Overcast
Mist, Overcast
 Wind from calm
Wind: Calm
Temperature: 37°F , 3°C
Dew Point: 34°F , 1°C
Humidity: 87%
Barometer: 999.7 hPa
Summary: Mist
Clouds: Overcast
Visibility: 5 miles , 8 km
Cloud details: Partly cloudy 7500 ft
Overcast 9000 ft
2024/02/24 05:54 KRDG 240554Z AUTO 00000KT 5SM BR SCT075 OVC090 03/01 A2952 RMK AO2 SLP001 T00280006 10061 20022 52001
 
KSEG - Selinsgrove, Pennsylvania, USA
Distance from station: NW 35mi, 57km
Updated: 02/24/2024 12:53am
Mist, Overcast
Mist, Overcast
 Wind from calm
Wind: Calm
Temperature: 36°F , 2°C
Dew Point: 34°F , 1°C
Humidity: 93%
Barometer: 1001 hPa
Summary: Mist
Clouds: Overcast
Visibility: 5 miles , 8 km
Cloud details: Overcast 3900 ft
2024/02/24 05:53 KSEG 240553Z AUTO 00000KT 5SM BR OVC039 02/01 A2956 RMK AO2 SLP013 T00220011 10022 20000 53008
KTHV - York, Pennsylvania, USA
Distance from station: SSW 40mi, 64km
Updated: 02/24/2024 1:12am
Mist, Overcast
Mist, Overcast
 Wind from calm
Wind: Calm
Temperature: 36°F , 2°C
Dew Point: 36°F , 2°C
Humidity: 100%
Barometer: 1000 hPa
Summary: Mist
Clouds: Overcast
Visibility: 2 1/2 miles , 4 km
Cloud details: Mostly cloudy 4400 ft
Mostly cloudy 5500 ft
Overcast 7000 ft
2024/02/24 06:12 KTHV 240612Z AUTO 00000KT 2 1/2SM UP BR BKN044 BKN055 OVC070 02/02 A2953 RMK AO2 UPB11 P0000 T00220017
 
KMQS - Coatesville, Pennsylvania, USA
Distance from station: SE 43mi, 70km
Updated: 02/24/2024 1:35am
Clear
Clear
 Wind from WNW
Wind: WNW 8 mph , 13 km/h
Temperature: 34°F , 1°C
Wind Chill: 27°F , -3°C
Dew Point: 34°F , 1°C
Humidity: 100%
Barometer: 999.7 hPa
Clouds: Clear
Visibility: 7 miles , 11 km
2024/02/24 06:35 KMQS 240635Z AUTO 30007KT 7SM CLR 01/01 A2952 RMK AO2
K22N - Lehighton, Pennsylvania, USA
Distance from station: NE 46mi, 74km
Updated: 02/24/2024 1:35am
Partly cloudy
Partly cloudy
 Wind from SE
Wind: SE 3 mph , 6 km/h
Temperature: 32°F , 0°C
Dew Point: 30°F , -1°C
Humidity: 93%
Barometer: 1000.3 hPa
Clouds: Partly cloudy
Visibility: 7 miles , 11 km
Cloud details: Partly cloudy 5500 ft
Partly cloudy 7500 ft
2024/02/24 06:35 K22N 240635Z AUTO 13003KT 7SM SCT055 SCT075 00/M01 A2954 RMK AO2
 
KHZL - Hazleton, Pennsylvania, USA
Distance from station: NNE 47mi, 76km
Updated: 02/24/2024 1:35am
Overcast
Overcast
 Wind from NW
Wind: NW 7 mph , 11 km/h
Temperature: 36°F , 2°C
Wind Chill: 30°F , -1°C
Dew Point: 32°F , 0°C
Humidity: 87%
Barometer: 1000.7 hPa
Clouds: Overcast
Visibility: 10 miles , 16 km
Cloud details: Overcast 3400 ft
2024/02/24 06:35 KHZL 240635Z AUTO 32006KT 10SM OVC034 02/00 A2955 RMK AO2
KPTW - Pottstown, Pennsylvania, USA
Distance from station: ESE 50mi, 81km
Updated: 02/24/2024 12:54am
Mist, Overcast
Mist, Overcast
 Wind from calm
Wind: Calm
Temperature: 37°F , 3°C
Dew Point: 36°F , 2°C
Humidity: 93%
Barometer: 999.7 hPa
Summary: Mist
Clouds: Overcast
Visibility: 6 miles , 10 km
Cloud details: Few Clouds 4800 ft
Mostly cloudy 6000 ft
Overcast 9000 ft
2024/02/24 05:54 KPTW 240554Z AUTO 00000KT 6SM BR FEW048 BKN060 OVC090 03/02 A2952 RMK AO2 SLP996 T00330017 10061 20017 55002